createdAt,value
2022-09-03T00:00:52.690Z,101.88
2022-09-03T00:01:47.889Z,100.77
2022-09-03T00:02:44.172Z,110.66
2022-09-03T00:03:39.628Z,120.40
2022-09-03T00:04:35.069Z,125.66
2022-09-03T00:05:30.244Z,123.70
2022-09-03T00:06:25.430Z,117.11
2022-09-03T00:07:21.218Z,122.07
2022-09-03T00:08:16.388Z,121.54
2022-09-03T00:09:12.374Z,130.88
2022-09-03T00:10:07.519Z,147.16
2022-09-03T00:11:02.818Z,147.94
2022-09-03T00:11:58.696Z,145.36
2022-09-03T00:12:53.861Z,136.34
2022-09-03T00:13:49.138Z,129.76
2022-09-03T00:14:45.294Z,122.52
2022-09-03T00:15:40.475Z,128.96
2022-09-03T00:16:36.325Z,147.16
2022-09-03T00:17:31.602Z,161.08
2022-09-03T00:18:26.936Z,166.21
2022-09-03T00:19:21.943Z,158.63
2022-09-03T00:20:17.245Z,153.38
2022-09-03T00:21:13.764Z,143.86
2022-09-03T00:22:09.061Z,136.90
2022-09-03T00:23:04.920Z,133.07
2022-09-03T00:24:00.054Z,128.27
2022-09-03T00:24:55.223Z,122.70
2022-09-03T00:25:50.962Z,119.62
2022-09-03T00:26:46.272Z,116.29
2022-09-03T00:27:42.217Z,111.03
2022-09-03T00:28:37.246Z,107.66
2022-09-03T00:29:32.733Z,104.82
2022-09-03T00:30:28.462Z,101.01
2022-09-03T00:31:23.852Z,101.50
2022-09-03T00:32:19.092Z,107.11
2022-09-03T00:33:15.518Z,105.62
2022-09-03T00:34:10.680Z,104.95
2022-09-03T00:35:06.565Z,106.70
2022-09-03T00:36:01.692Z,116.61
2022-09-03T00:36:57.094Z,127.19
2022-09-03T00:37:52.134Z,131.50
2022-09-03T00:38:47.428Z,127.48
2022-09-03T00:39:42.739Z,119.54
2022-09-03T00:40:40.613Z,114.69
2022-09-03T00:41:35.892Z,108.93
2022-09-03T00:42:31.318Z,106.15
2022-09-03T00:43:26.478Z,103.52
2022-09-03T00:44:21.487Z,102.44
2022-09-03T00:45:16.549Z,100.71
2022-09-03T00:46:11.650Z,100.35
2022-09-03T00:47:06.667Z,100.47
2022-09-03T00:48:01.714Z,102.00
2022-09-03T00:48:56.717Z,101.94
2022-09-03T00:49:51.774Z,105.08
2022-09-03T00:50:46.806Z,118.86
2022-09-03T00:51:41.815Z,127.48
2022-09-03T00:52:36.848Z,128.56
2022-09-03T00:53:31.902Z,134.47
2022-09-03T00:54:26.894Z,131.09
2022-09-03T00:55:22.063Z,132.55
2022-09-03T00:56:16.932Z,132.86
2022-09-03T00:57:12.013Z,140.23
2022-09-03T00:58:07.186Z,135.23
2022-09-03T00:59:02.255Z,139.06
2022-09-03T00:59:57.286Z,145.11
2022-09-03T01:00:52.284Z,141.06
2022-09-03T01:01:47.409Z,137.46
2022-09-03T01:02:42.456Z,129.86
2022-09-03T01:03:37.331Z,127.19
2022-09-03T01:04:32.381Z,131.19
2022-09-03T01:05:27.386Z,133.61
2022-09-03T01:06:22.400Z,127.48
2022-09-03T01:07:17.411Z,123.34
2022-09-03T01:08:12.569Z,120.75
2022-09-03T01:09:07.975Z,119.54
2022-09-03T01:10:02.999Z,117.68
2022-09-03T01:10:58.279Z,115.56
2022-09-03T01:11:53.440Z,115.01
2022-09-03T01:12:48.707Z,116.05
2022-09-03T01:13:43.974Z,122.52
2022-09-03T01:14:39.390Z,124.44
2022-09-03T01:15:34.412Z,121.19
2022-09-03T01:16:29.718Z,117.68
2022-09-03T01:17:24.868Z,117.11
2022-09-03T01:18:20.081Z,115.97
2022-09-03T01:19:15.268Z,123.06
2022-09-03T01:20:10.407Z,123.61
2022-09-03T01:21:05.818Z,122.70
2022-09-03T01:22:00.956Z,122.70
2022-09-03T01:22:56.227Z,121.99
2022-09-03T01:23:51.380Z,123.43
2022-09-03T01:24:46.807Z,120.75
2022-09-03T01:25:41.936Z,119.54
2022-09-03T01:26:37.092Z,116.86
2022-09-03T01:27:32.374Z,116.78
2022-09-03T01:28:27.525Z,117.68
2022-09-03T01:29:22.794Z,117.52
2022-09-03T01:30:18.098Z,118.52
2022-09-03T01:31:13.312Z,117.43
2022-09-03T01:32:08.554Z,115.40
2022-09-03T01:33:03.824Z,114.38
2022-09-03T01:33:58.983Z,113.68
2022-09-03T01:34:54.144Z,114.30
2022-09-03T01:35:49.292Z,115.09
2022-09-03T01:36:44.556Z,116.78
2022-09-03T01:37:39.959Z,115.40
2022-09-03T01:38:35.094Z,116.61
2022-09-03T01:39:30.386Z,116.13
2022-09-03T01:40:25.726Z,121.01
2022-09-03T01:41:20.724Z,120.31
2022-09-03T01:42:16.004Z,117.60
2022-09-03T01:43:14.745Z,117.93
2022-09-03T01:44:08.822Z,118.77
2022-09-03T01:45:03.992Z,124.35
2022-09-03T01:45:59.194Z,123.43
2022-09-03T01:46:54.580Z,120.75
2022-09-03T01:47:49.835Z,120.92
2022-09-03T01:48:45.010Z,124.25
2022-09-03T01:49:40.038Z,133.18
2022-09-03T01:50:35.100Z,141.66
2022-09-03T01:51:30.087Z,154.37
2022-09-03T01:52:25.211Z,164.73
2022-09-03T01:53:20.243Z,173.47
2022-09-03T01:54:20.687Z,177.53
2022-09-03T01:55:11.358Z,175.29
2022-09-03T01:56:05.430Z,171.33
2022-09-03T01:57:00.987Z,172.04
2022-09-03T01:57:56.179Z,172.21
2022-09-03T01:58:51.317Z,171.33
2022-09-03T01:59:46.710Z,171.68
2022-09-03T02:00:41.840Z,163.76
2022-09-03T02:01:37.127Z,158.63
2022-09-03T02:02:32.338Z,153.38
2022-09-03T02:03:27.477Z,150.34
2022-09-03T02:04:23.494Z,151.57
2022-09-03T02:05:18.646Z,148.20
2022-09-03T02:06:13.802Z,144.23
2022-09-03T02:07:09.674Z,144.86
2022-09-03T02:08:04.976Z,146.77
2022-09-03T02:09:00.921Z,150.07
2022-09-03T02:09:56.033Z,147.29
2022-09-03T02:10:51.202Z,149.26
2022-09-03T02:11:47.073Z,156.69
2022-09-03T02:12:42.362Z,161.08
2022-09-03T02:13:37.784Z,164.09
2022-09-03T02:14:33.921Z,168.73
2022-09-03T02:15:29.237Z,169.93
2022-09-03T02:16:25.080Z,169.24
2022-09-03T02:17:20.341Z,172.04
2022-09-03T02:18:15.678Z,171.33
2022-09-03T02:19:11.285Z,169.93
2022-09-03T02:20:06.433Z,164.90
2022-09-03T02:21:02.279Z,161.86
2022-09-03T02:21:57.549Z,156.10
2022-09-03T02:22:53.006Z,155.81
2022-09-03T02:23:48.608Z,161.08
2022-09-03T02:24:43.889Z,161.08
2022-09-03T02:25:39.048Z,156.69
2022-09-03T02:26:35.568Z,155.52
2022-09-03T02:27:30.895Z,159.38
2022-09-03T02:28:26.772Z,162.80
2022-09-03T02:29:21.899Z,163.28
2022-09-03T02:30:17.086Z,161.39
2022-09-03T02:31:12.997Z,155.67
2022-09-03T02:32:08.237Z,150.07
2022-09-03T02:33:04.068Z,147.16
2022-09-03T02:33:59.350Z,143.86
2022-09-03T02:34:54.539Z,137.12
2022-09-03T02:35:50.375Z,134.04
2022-09-03T02:36:45.555Z,131.29
2022-09-03T02:37:40.817Z,129.86
2022-09-03T02:38:37.336Z,125.47
2022-09-03T02:39:36.162Z,123.15
2022-09-03T02:40:29.246Z,121.36
2022-09-03T02:41:23.445Z,121.54
2022-09-03T02:42:18.588Z,119.28
2022-09-03T02:43:14.466Z,117.85
2022-09-03T02:44:09.800Z,116.70
2022-09-03T02:45:05.631Z,118.69
2022-09-03T02:46:00.825Z,117.85
2022-09-03T02:46:56.124Z,117.35
2022-09-03T02:47:52.005Z,117.68
2022-09-03T02:48:47.182Z,115.81
2022-09-03T02:49:42.448Z,113.83
2022-09-03T02:50:38.849Z,112.37
2022-09-03T02:51:34.153Z,111.85
2022-09-03T02:52:30.016Z,111.10
2022-09-03T02:53:25.302Z,110.51
2022-09-03T02:54:21.269Z,109.21
2022-09-03T02:55:16.213Z,108.57
2022-09-03T02:56:11.524Z,109.28
2022-09-03T02:57:07.251Z,109.14
2022-09-03T02:58:02.511Z,109.28
2022-09-03T02:58:57.959Z,109.86
2022-09-03T02:59:53.684Z,109.00
2022-09-03T03:00:48.968Z,108.43
2022-09-03T03:01:44.162Z,108.86
2022-09-03T03:02:40.565Z,108.71
2022-09-03T03:03:35.744Z,110.37
2022-09-03T03:04:31.048Z,113.06
2022-09-03T03:05:26.181Z,113.52
2022-09-03T03:06:22.056Z,113.52
2022-09-03T03:07:17.359Z,113.83
2022-09-03T03:08:13.206Z,112.07
2022-09-03T03:09:08.465Z,111.32
2022-09-03T03:10:03.875Z,110.00
2022-09-03T03:10:59.596Z,109.00
2022-09-03T03:11:54.880Z,109.36
2022-09-03T03:12:50.216Z,109.71
2022-09-03T03:13:46.459Z,111.25
2022-09-03T03:14:41.766Z,110.44
2022-09-03T03:15:37.606Z,109.93
2022-09-03T03:16:32.911Z,108.93
2022-09-03T03:17:28.055Z,109.00
2022-09-03T03:18:24.195Z,107.80
2022-09-03T03:19:19.154Z,106.09
2022-09-03T03:20:15.004Z,104.89
2022-09-03T03:21:10.252Z,104.23
2022-09-03T03:22:05.403Z,103.65
2022-09-03T03:23:00.700Z,102.25
2022-09-03T03:23:55.981Z,102.69
2022-09-03T03:24:51.120Z,103.39
2022-09-03T03:25:46.409Z,103.84
2022-09-03T03:26:42.269Z,103.78
2022-09-03T03:27:37.533Z,104.23
2022-09-03T03:28:32.830Z,103.97
2022-09-03T03:29:28.556Z,105.22
2022-09-03T03:30:23.816Z,105.75
2022-09-03T03:31:19.036Z,103.91
2022-09-03T03:32:14.178Z,106.77
2022-09-03T03:33:09.299Z,104.75
2022-09-03T03:34:04.349Z,103.07
2022-09-03T03:34:59.359Z,104.04
2022-09-03T03:35:54.517Z,104.43
2022-09-03T03:36:49.571Z,103.20
2022-09-03T03:37:44.717Z,101.50
2022-09-03T03:38:39.909Z,100.47
2022-09-03T03:39:34.946Z,100.53
2022-09-03T03:40:30.026Z,100.41
2022-09-03T03:41:25.036Z,99.45
2022-09-03T03:42:20.064Z,100.95
2022-09-03T03:43:15.106Z,99.51
2022-09-03T03:44:10.102Z,96.79
2022-09-03T03:45:05.168Z,96.18
2022-09-03T03:46:00.239Z,94.76
2022-09-03T03:46:55.154Z,95.65
2022-09-03T03:47:50.233Z,92.78
2022-09-03T03:48:48.803Z,91.06
2022-09-03T03:49:43.888Z,90.07
2022-09-03T03:50:38.937Z,89.40
2022-09-03T03:51:34.043Z,88.08
2022-09-03T03:52:29.155Z,87.71
2022-09-03T03:53:24.223Z,87.43
2022-09-03T03:54:19.324Z,86.61
2022-09-03T03:55:15.942Z,86.98
2022-09-03T03:56:09.417Z,87.80
2022-09-03T03:57:04.626Z,88.08
2022-09-03T03:57:59.859Z,89.11
2022-09-03T03:58:54.859Z,90.07
2022-09-03T03:59:55.628Z,89.59
2022-09-03T04:00:50.891Z,88.83
2022-09-03T04:01:46.238Z,88.26
2022-09-03T04:02:41.828Z,88.54
2022-09-03T04:03:36.904Z,88.64
2022-09-03T04:04:32.118Z,88.26
2022-09-03T04:05:28.305Z,88.64
2022-09-03T04:06:24.475Z,86.89
2022-09-03T04:07:19.298Z,85.03
2022-09-03T04:08:14.499Z,84.42
2022-09-03T04:09:09.626Z,83.49
2022-09-03T04:10:05.431Z,83.08
2022-09-03T04:11:00.579Z,84.68
2022-09-03T04:11:56.352Z,86.61
2022-09-03T04:12:51.561Z,88.17
2022-09-03T04:13:46.797Z,89.30
2022-09-03T04:14:42.601Z,88.92
2022-09-03T04:15:37.716Z,87.61
2022-09-03T04:16:33.047Z,81.62
2022-09-03T04:17:29.289Z,77.74
2022-09-03T04:18:24.642Z,75.90
2022-09-03T04:19:20.335Z,75.69
2022-09-03T04:20:15.423Z,72.41
2022-09-03T04:21:10.541Z,68.88
2022-09-03T04:22:06.353Z,67.65
2022-09-03T04:23:01.634Z,67.98
2022-09-03T04:23:57.616Z,67.38
2022-09-03T04:24:52.637Z,66.89
2022-09-03T04:25:48.049Z,68.26
2022-09-03T04:26:43.926Z,69.46
2022-09-03T04:27:39.247Z,70.69
2022-09-03T04:28:34.519Z,72.35
2022-09-03T04:29:30.892Z,73.75
2022-09-03T04:30:26.264Z,75.56
2022-09-03T04:31:21.962Z,74.68
2022-09-03T04:32:17.159Z,72.66
2022-09-03T04:33:16.069Z,71.36
2022-09-03T04:34:08.285Z,71.48
2022-09-03T04:35:03.586Z,71.17
2022-09-03T04:35:59.439Z,71.48
2022-09-03T04:36:54.690Z,70.69
2022-09-03T04:37:50.150Z,70.99
2022-09-03T04:38:45.728Z,70.69
2022-09-03T04:39:41.109Z,70.39
2022-09-03T04:40:36.249Z,71.36
2022-09-03T04:41:32.756Z,71.48
2022-09-03T04:42:28.081Z,71.97
2022-09-03T04:43:23.933Z,71.72
2022-09-03T04:44:19.059Z,70.93
2022-09-03T04:45:14.237Z,71.29
2022-09-03T04:46:16.236Z,72.35
2022-09-03T04:47:06.315Z,72.22
2022-09-03T04:48:01.107Z,71.48
2022-09-03T04:48:56.282Z,71.79
2022-09-03T04:49:51.632Z,72.10
2022-09-03T04:50:47.378Z,73.23
2022-09-03T04:51:42.596Z,74.21
2022-09-03T04:52:37.782Z,74.15
2022-09-03T04:53:34.274Z,73.88
2022-09-03T04:54:29.871Z,74.61
2022-09-03T04:55:25.204Z,74.41
2022-09-03T04:56:20.436Z,73.43
2022-09-03T04:57:15.633Z,72.85
2022-09-03T04:58:11.454Z,72.47
2022-09-03T04:59:06.653Z,71.91
2022-09-03T05:00:01.830Z,71.23
2022-09-03T05:00:57.175Z,71.54
2022-09-03T05:01:53.688Z,71.60
2022-09-03T05:02:48.857Z,71.17
2022-09-03T05:03:44.091Z,71.36
2022-09-03T05:04:39.883Z,72.53
2022-09-03T05:05:35.176Z,73.30
2022-09-03T05:06:31.005Z,73.36
2022-09-03T05:07:26.242Z,73.30
2022-09-03T05:08:21.716Z,72.28
2022-09-03T05:09:17.369Z,71.29
2022-09-03T05:10:12.660Z,71.05
2022-09-03T05:11:07.910Z,71.72
2022-09-03T05:12:04.440Z,72.53
2022-09-03T05:12:59.728Z,73.36
2022-09-03T05:13:55.533Z,73.36
2022-09-03T05:14:50.799Z,72.72
2022-09-03T05:15:46.077Z,71.97
2022-09-03T05:16:41.962Z,70.93
2022-09-03T05:17:37.846Z,69.63
2022-09-03T05:18:32.579Z,69.51
2022-09-03T05:19:27.857Z,69.46
2022-09-03T05:20:23.269Z,69.34
2022-09-03T05:21:18.539Z,70.63
2022-09-03T05:22:13.806Z,73.11
2022-09-03T05:23:09.188Z,74.94
2022-09-03T05:24:05.139Z,76.18
2022-09-03T05:25:00.388Z,78.25
2022-09-03T05:25:55.745Z,82.42
2022-09-03T05:26:50.865Z,85.90
2022-09-03T05:27:45.972Z,87.52
2022-09-03T05:28:41.101Z,90.56
2022-09-03T05:29:36.101Z,92.68
2022-09-03T05:30:31.192Z,94.14
2022-09-03T05:31:26.384Z,95.96
2022-09-03T05:32:21.388Z,98.74
2022-09-03T05:33:16.434Z,99.99
2022-09-03T05:34:16.448Z,100.77
2022-09-03T05:35:07.574Z,100.29
2022-09-03T05:36:01.573Z,103.33
2022-09-03T05:36:56.681Z,105.89
2022-09-03T05:37:51.755Z,105.22
2022-09-03T05:38:46.886Z,105.22
2022-09-03T05:39:42.065Z,105.42
2022-09-03T05:40:37.060Z,105.35
2022-09-03T05:41:32.181Z,104.23
2022-09-03T05:42:27.229Z,103.65
2022-09-03T05:43:22.315Z,103.01
2022-09-03T05:44:17.318Z,101.32
2022-09-03T05:45:12.354Z,101.75
2022-09-03T05:46:07.846Z,104.23
2022-09-03T05:47:03.169Z,107.18
2022-09-03T05:47:58.622Z,107.94
2022-09-03T05:48:54.177Z,110.81
2022-09-03T05:49:49.628Z,112.75
2022-09-03T05:50:45.029Z,112.91
2022-09-03T05:51:40.449Z,111.62
2022-09-03T05:52:35.867Z,111.18
2022-09-03T05:53:31.318Z,110.51
2022-09-03T05:54:26.748Z,110.59
2022-09-03T05:55:26.088Z,111.32
2022-09-03T05:56:21.403Z,107.87
2022-09-03T05:57:16.399Z,105.89
2022-09-03T05:58:11.558Z,103.20
2022-09-03T05:59:06.477Z,101.01
2022-09-03T06:00:01.483Z,99.86
2022-09-03T06:00:56.524Z,100.17
2022-09-03T06:01:54.660Z,100.89
2022-09-03T06:02:48.473Z,99.09
2022-09-03T06:03:42.829Z,99.15
2022-09-03T06:04:38.106Z,97.30
2022-09-03T06:05:33.484Z,96.13
2022-09-03T06:06:28.866Z,94.44
2022-09-03T06:07:24.373Z,95.76
2022-09-03T06:08:19.615Z,95.87
2022-09-03T06:09:14.950Z,94.07
2022-09-03T06:10:10.332Z,94.57
2022-09-03T06:11:05.686Z,95.43
2022-09-03T06:12:03.851Z,95.00
2022-09-03T06:12:56.442Z,92.99
2022-09-03T06:13:51.770Z,91.26
2022-09-03T06:14:47.149Z,91.66
2022-09-03T06:15:42.311Z,92.47
2022-09-03T06:16:37.406Z,93.30
2022-09-03T06:17:32.371Z,87.80
2022-09-03T06:18:29.389Z,88.83
2022-09-03T06:19:24.456Z,91.66
2022-09-03T06:20:19.678Z,95.00
2022-09-03T06:21:14.662Z,95.74
2022-09-03T06:22:09.735Z,99.15
2022-09-03T06:23:04.720Z,101.57
2022-09-03T06:24:00.264Z,101.75
2022-09-03T06:24:54.835Z,99.09
2022-09-03T06:25:50.104Z,97.53
2022-09-03T06:26:45.051Z,97.99
2022-09-03T06:27:40.101Z,101.63
2022-09-03T06:28:35.095Z,102.76
2022-09-03T06:29:30.097Z,98.16
2022-09-03T06:30:25.365Z,97.93
2022-09-03T06:31:20.745Z,100.83
2022-09-03T06:32:16.164Z,102.38
2022-09-03T06:33:11.635Z,100.59
2022-09-03T06:34:07.036Z,100.95
2022-09-03T06:35:02.074Z,100.77
2022-09-03T06:35:57.114Z,102.32
2022-09-03T06:36:52.136Z,107.18
2022-09-03T06:37:47.213Z,108.08
2022-09-03T06:38:42.209Z,109.79
2022-09-03T06:39:37.279Z,110.22
2022-09-03T06:40:32.333Z,112.37
2022-09-03T06:41:27.357Z,115.32
2022-09-03T06:42:22.395Z,115.40
2022-09-03T06:43:17.386Z,117.52
2022-09-03T06:44:12.434Z,120.92
2022-09-03T06:45:07.831Z,122.07
2022-09-03T06:46:03.274Z,123.98
2022-09-03T06:46:58.642Z,125.09
2022-09-03T06:47:54.055Z,125.66
2022-09-03T06:48:49.466Z,125.00
2022-09-03T06:49:44.913Z,122.88
2022-09-03T06:50:40.310Z,122.88
2022-09-03T06:51:35.869Z,124.44
2022-09-03T06:52:31.191Z,125.85
2022-09-03T06:53:26.627Z,126.04
2022-09-03T06:54:23.068Z,125.19
2022-09-03T06:55:17.588Z,125.38
2022-09-03T06:56:13.048Z,126.71
2022-09-03T06:57:08.781Z,128.86
2022-09-03T06:58:03.692Z,129.86
2022-09-03T06:58:58.761Z,130.17
2022-09-03T06:59:53.848Z,123.89
2022-09-03T07:00:49.032Z,120.40
2022-09-03T07:01:45.460Z,121.28
2022-09-03T07:02:42.850Z,122.25
2022-09-03T07:03:35.270Z,127.09
2022-09-03T07:04:29.393Z,130.57
2022-09-03T07:05:24.456Z,132.86
2022-09-03T07:06:19.547Z,133.07
2022-09-03T07:07:16.775Z,132.65
2022-09-03T07:08:12.312Z,127.58
2022-09-03T07:09:07.753Z,125.56
2022-09-03T07:10:03.380Z,124.35
2022-09-03T07:10:58.831Z,125.19
2022-09-03T07:11:54.274Z,126.42
2022-09-03T07:12:49.782Z,126.61
2022-09-03T07:13:45.237Z,127.29
2022-09-03T07:14:40.764Z,127.68
2022-09-03T07:15:36.014Z,124.44
2022-09-03T07:16:31.502Z,116.94
2022-09-03T07:17:26.971Z,113.06
2022-09-03T07:18:22.512Z,113.21
2022-09-03T07:19:18.156Z,113.99
2022-09-03T07:20:13.641Z,112.45
2022-09-03T07:21:08.679Z,108.22
2022-09-03T07:22:03.729Z,109.93
2022-09-03T07:22:58.820Z,111.25
2022-09-03T07:23:53.878Z,114.06
2022-09-03T07:24:49.031Z,116.05
2022-09-03T07:25:43.994Z,114.30
2022-09-03T07:26:39.069Z,112.68
2022-09-03T07:27:34.151Z,108.50
2022-09-03T07:28:29.230Z,107.59
2022-09-03T07:29:24.453Z,109.14
2022-09-03T07:30:22.413Z,110.44
2022-09-03T07:31:17.512Z,112.30
2022-09-03T07:32:12.611Z,113.14
2022-09-03T07:33:07.733Z,113.75
2022-09-03T07:34:02.794Z,113.83
2022-09-03T07:34:57.807Z,110.81
2022-09-03T07:35:53.193Z,108.01
2022-09-03T07:36:49.041Z,109.00
2022-09-03T07:37:44.136Z,110.51
2022-09-03T07:38:39.758Z,111.32
2022-09-03T07:39:35.304Z,112.53
2022-09-03T07:40:30.708Z,115.48
2022-09-03T07:41:28.769Z,117.52
2022-09-03T07:42:21.471Z,116.13
2022-09-03T07:43:17.225Z,113.91
2022-09-03T07:44:12.584Z,114.38
2022-09-03T07:45:08.060Z,118.18
2022-09-03T07:46:03.640Z,121.54
2022-09-03T07:46:59.145Z,122.43
2022-09-03T07:47:54.629Z,121.36
2022-09-03T07:48:50.124Z,120.05
2022-09-03T07:49:45.593Z,119.45
2022-09-03T07:50:41.113Z,117.77
2022-09-03T07:51:36.602Z,116.61
2022-09-03T07:52:32.082Z,114.61
2022-09-03T07:53:27.600Z,113.99
2022-09-03T07:54:23.180Z,112.60
2022-09-03T07:55:18.791Z,114.77
2022-09-03T07:56:13.702Z,114.38
2022-09-03T07:57:08.701Z,113.68
2022-09-03T07:58:03.861Z,115.81
2022-09-03T07:58:58.949Z,117.19
2022-09-03T07:59:54.069Z,119.79
2022-09-03T08:00:49.205Z,118.35
2022-09-03T08:01:44.197Z,116.70
2022-09-03T08:02:41.972Z,117.35
2022-09-03T08:03:35.369Z,115.89
2022-09-03T08:04:29.359Z,114.69
2022-09-03T08:05:24.457Z,115.09
2022-09-03T08:06:20.867Z,114.61
2022-09-03T08:07:16.370Z,114.38
2022-09-03T08:08:11.844Z,117.02
2022-09-03T08:09:07.468Z,118.69
2022-09-03T08:10:02.835Z,118.52
2022-09-03T08:10:58.345Z,117.85
2022-09-03T08:11:53.948Z,119.54
2022-09-03T08:12:49.267Z,122.07
2022-09-03T08:13:44.728Z,123.70
2022-09-03T08:14:40.211Z,122.52
2022-09-03T08:15:35.856Z,123.98
2022-09-03T08:16:31.369Z,124.53
2022-09-03T08:17:26.755Z,122.70
2022-09-03T08:18:22.294Z,122.16
2022-09-03T08:19:17.287Z,123.61
2022-09-03T08:20:12.367Z,121.54
2022-09-03T08:21:07.532Z,118.60
2022-09-03T08:22:02.487Z,117.85
2022-09-03T08:22:57.555Z,120.75
2022-09-03T08:23:52.605Z,120.14
2022-09-03T08:24:47.715Z,120.14
2022-09-03T08:25:42.812Z,118.52
2022-09-03T08:26:37.879Z,120.75
2022-09-03T08:27:32.988Z,123.25
2022-09-03T08:28:28.062Z,124.35
2022-09-03T08:29:23.289Z,125.66
2022-09-03T08:30:21.235Z,125.85
2022-09-03T08:31:16.326Z,124.53
2022-09-03T08:32:11.623Z,124.16
2022-09-03T08:33:06.451Z,125.66
2022-09-03T08:34:01.503Z,130.47
2022-09-03T08:34:56.592Z,133.82
2022-09-03T08:35:51.662Z,134.25
2022-09-03T08:36:46.741Z,134.79
2022-09-03T08:37:41.802Z,129.96
2022-09-03T08:38:37.146Z,128.96
2022-09-03T08:39:33.490Z,130.47
2022-09-03T08:40:28.967Z,131.40
2022-09-03T08:41:24.859Z,132.76
2022-09-03T08:42:20.319Z,131.29
2022-09-03T08:43:15.753Z,125.00
2022-09-03T08:44:11.522Z,123.79
2022-09-03T08:45:07.008Z,124.07
2022-09-03T08:46:03.097Z,119.54
2022-09-03T08:46:58.391Z,121.63
2022-09-03T08:47:53.767Z,124.72
2022-09-03T08:48:49.730Z,126.90
2022-09-03T08:49:45.011Z,120.84
2022-09-03T08:50:40.532Z,123.52
2022-09-03T08:51:36.657Z,128.56
2022-09-03T08:52:32.195Z,133.71
2022-09-03T08:53:28.021Z,137.23
2022-09-03T08:54:23.377Z,135.12
2022-09-03T08:55:18.827Z,133.29
2022-09-03T08:56:14.522Z,135.45
2022-09-03T08:57:10.066Z,140.00
2022-09-03T08:58:05.867Z,140.47
2022-09-03T08:59:01.273Z,143.24
2022-09-03T08:59:56.603Z,148.46
2022-09-03T09:00:52.362Z,149.13
2022-09-03T09:01:47.973Z,150.74
2022-09-03T09:02:43.440Z,148.07
2022-09-03T09:03:39.782Z,145.74
2022-09-03T09:04:35.256Z,146.38
2022-09-03T09:05:31.268Z,152.82
2022-09-03T09:06:26.815Z,162.33
2022-09-03T09:07:22.261Z,167.21
2022-09-03T09:08:18.043Z,168.56
2022-09-03T09:09:13.533Z,174.92
2022-09-03T09:10:09.416Z,179.63
2022-09-03T09:11:04.798Z,185.83
2022-09-03T09:12:00.288Z,184.89
2022-09-03T09:12:56.119Z,186.04
2022-09-03T09:13:51.470Z,184.89
2022-09-03T09:14:47.002Z,185.42
2022-09-03T09:15:43.247Z,182.18
2022-09-03T09:16:38.724Z,186.24
2022-09-03T09:17:34.769Z,187.85
2022-09-03T09:18:30.129Z,184.89
2022-09-03T09:19:25.575Z,180.80
2022-09-03T09:20:21.389Z,186.24
2022-09-03T09:21:21.394Z,185.42
2022-09-03T09:22:13.890Z,179.63
2022-09-03T09:23:08.269Z,182.18
2022-09-03T09:24:03.708Z,183.38
2022-09-03T09:25:00.165Z,185.83
2022-09-03T09:25:55.467Z,185.83
2022-09-03T09:26:50.915Z,186.26
2022-09-03T09:29:10.648Z,186.24
2022-09-03T09:30:06.002Z,174.55
2022-09-03T09:31:01.530Z,172.04
2022-09-03T09:31:57.019Z,171.15
2022-09-03T09:32:52.481Z,160.77
2022-09-03T09:33:47.992Z,148.86
2022-09-03T09:34:43.393Z,140.94
2022-09-03T09:35:38.823Z,134.36
2022-09-03T09:36:34.222Z,136.11
2022-09-03T09:37:29.902Z,142.51
2022-09-03T09:38:25.576Z,138.60
2022-09-03T09:39:21.030Z,132.13
2022-09-03T09:40:16.592Z,132.02
2022-09-03T09:41:12.152Z,139.88
2022-09-03T09:42:07.662Z,151.84
2022-09-03T09:43:03.199Z,153.80
2022-09-03T09:43:58.604Z,150.34
2022-09-03T09:44:53.979Z,145.11
2022-09-03T09:45:49.518Z,149.00
2022-09-03T09:46:45.253Z,158.32
2022-09-03T09:47:40.473Z,155.38
2022-09-03T09:48:35.892Z,162.65
2022-09-03T09:49:31.290Z,172.57
2022-09-03T09:50:26.946Z,183.78
2022-09-03T09:51:22.352Z,193.28
2022-09-03T09:52:17.857Z,205.50
2022-09-03T09:53:13.262Z,207.85
2022-09-03T09:54:08.886Z,208.51
2022-09-03T09:55:04.272Z,199.26
2022-09-03T09:55:59.809Z,200.97
2022-09-03T09:56:55.348Z,200.48
2022-09-03T09:57:50.728Z,203.09
2022-09-03T09:58:46.385Z,207.45
2022-09-03T09:59:41.650Z,211.33
2022-09-03T10:00:37.025Z,212.42
2022-09-03T10:01:32.887Z,218.79
2022-09-03T10:02:28.457Z,219.82
2022-09-03T10:03:23.710Z,218.50
2022-09-03T10:04:19.099Z,217.63
2022-09-03T10:05:14.491Z,217.63
2022-09-03T10:06:09.881Z,218.79
2022-09-03T10:07:05.395Z,219.67
2022-09-03T10:08:00.965Z,221.01
2022-09-03T10:08:56.211Z,227.12
2022-09-03T10:09:51.606Z,228.39
2022-09-03T10:10:46.991Z,228.55
2022-09-03T10:11:42.533Z,229.35
2022-09-03T10:12:38.025Z,222.81
2022-09-03T10:13:33.565Z,215.35
2022-09-03T10:14:28.979Z,219.23
2022-09-03T10:15:24.628Z,226.50
2022-09-03T10:16:20.190Z,233.26
2022-09-03T10:17:15.515Z,235.94
2022-09-03T10:18:11.037Z,237.31
2022-09-03T10:19:06.575Z,239.04
2022-09-03T10:20:02.104Z,231.29
2022-09-03T10:20:57.611Z,225.87
2022-09-03T10:21:53.260Z,222.81
2022-09-03T10:22:56.977Z,217.06
2022-09-03T10:23:45.310Z,217.78
2022-09-03T10:24:39.712Z,219.82
2022-09-03T10:25:35.133Z,219.23
2022-09-03T10:26:32.067Z,215.49
2022-09-03T10:27:26.274Z,211.19
2022-09-03T10:28:21.762Z,208.37
2022-09-03T10:29:17.299Z,202.46
2022-09-03T10:30:12.693Z,192.71
2022-09-03T10:31:08.149Z,198.18
2022-09-03T10:32:03.618Z,205.24
2022-09-03T10:32:59.008Z,207.58
2022-09-03T10:33:54.513Z,202.46
2022-09-03T10:34:50.070Z,214.64
2022-09-03T10:35:45.579Z,225.72
2022-09-03T10:36:41.090Z,230.80
2022-09-03T10:37:36.556Z,234.60
2022-09-03T10:38:32.067Z,236.11
2022-09-03T10:39:27.760Z,234.60
2022-09-03T10:40:23.097Z,225.41
2022-09-03T10:41:18.592Z,236.28
2022-09-03T10:42:14.106Z,246.21
2022-09-03T10:43:09.644Z,254.42
2022-09-03T10:44:05.218Z,251.11
2022-09-03T10:45:00.747Z,232.76
2022-09-03T10:45:56.151Z,229.67
2022-09-03T10:46:51.748Z,236.11
2022-09-03T10:47:47.180Z,231.94
2022-09-03T10:48:42.607Z,230.31
2022-09-03T10:49:38.114Z,242.75
2022-09-03T10:50:33.718Z,264.90
2022-09-03T10:51:29.088Z,289.18
2022-09-03T10:52:24.588Z,309.35
2022-09-03T10:53:19.978Z,327.90
2022-09-03T10:54:15.690Z,338.04
2022-09-03T10:55:10.926Z,355.62
2022-09-03T10:56:06.440Z,346.24
2022-09-03T10:57:01.855Z,356.78
2022-09-03T10:57:57.368Z,365.93
2022-09-03T10:58:53.206Z,375.57
2022-09-03T10:59:48.435Z,400.50
2022-09-03T11:00:43.945Z,422.58
2022-09-03T11:01:39.685Z,420.45
2022-09-03T11:02:35.171Z,459.57
2022-09-03T11:03:30.535Z,480.77
2022-09-03T11:04:26.287Z,514.93
2022-09-03T11:05:21.535Z,525.48
2022-09-03T11:06:17.053Z,523.01
2022-09-03T11:07:12.563Z,515.73
2022-09-03T11:08:08.165Z,516.92
2022-09-03T11:09:06.660Z,545.24
2022-09-03T11:09:59.238Z,561.78
2022-09-03T11:10:54.732Z,571.41
2022-09-03T11:11:50.224Z,568.00
2022-09-03T11:12:45.891Z,569.94
2022-09-03T11:13:41.514Z,601.29
2022-09-03T11:14:36.895Z,639.34
2022-09-03T11:15:32.415Z,683.93
2022-09-03T11:16:27.951Z,711.67
2022-09-03T11:17:23.375Z,698.99
2022-09-03T11:18:19.041Z,666.83
2022-09-03T11:19:14.298Z,686.04
2022-09-03T11:20:09.860Z,688.88
2022-09-03T11:21:07.668Z,635.68
2022-09-03T11:22:01.374Z,540.38
2022-09-03T11:22:56.061Z,522.60
2022-09-03T11:23:55.042Z,558.49
2022-09-03T11:24:47.012Z,583.92
2022-09-03T11:25:42.450Z,610.65
2022-09-03T11:26:38.159Z,639.96
2022-09-03T11:27:33.392Z,660.23
2022-09-03T11:28:28.914Z,633.87
2022-09-03T11:29:24.300Z,639.34
2022-09-03T11:30:19.841Z,675.62
2022-09-03T11:31:15.434Z,708.64
2022-09-03T11:32:10.773Z,724.82
2022-09-03T11:33:06.271Z,760.25
2022-09-03T11:34:01.911Z,770.34
2022-09-03T11:34:57.188Z,764.60
2022-09-03T11:35:52.845Z,785.76
2022-09-03T11:36:48.388Z,780.24
2022-09-03T11:37:43.913Z,789.47